sensor_id;sensor_type;location;lat;lon;timestamp;pressure;altitude;pressure_sealevel;temperature;humidity
31239;BME280;17871;31.584;74.450;2023-05-23T04:22:32;97911.81;;;40.12;26.47
31239;BME280;17871;31.584;74.450;2023-05-23T04:46:31;97900.50;;;41.58;22.00
31239;BME280;17871;31.584;74.450;2023-05-23T04:49:16;97916.34;;;41.53;22.21
31239;BME280;17871;31.584;74.450;2023-05-23T06:04:39;97886.63;;;43.30;22.50
31239;BME280;17871;31.584;74.450;2023-05-23T06:21:13;97871.81;;;43.91;25.51
31239;BME280;17871;31.584;74.450;2023-05-23T06:24:07;97875.13;;;43.87;24.60
31239;BME280;17871;31.584;74.450;2023-05-23T06:26:37;97877.06;;;43.80;23.33
31239;BME280;17871;31.584;74.450;2023-05-23T06:29:10;97871.22;;;43.89;23.28
31239;BME280;17871;31.584;74.450;2023-05-23T06:31:43;97864.50;;;44.05;23.49
31239;BME280;17871;31.584;74.450;2023-05-23T06:34:13;97864.00;;;44.28;24.40
31239;BME280;17871;31.584;74.450;2023-05-23T06:36:43;97862.44;;;44.01;22.34
31239;BME280;17871;31.584;74.450;2023-05-23T06:39:15;97864.59;;;43.85;22.49
31239;BME280;17871;31.584;74.450;2023-05-23T06:41:47;97860.47;;;43.83;23.35
31239;BME280;17871;31.584;74.450;2023-05-23T06:44:18;97852.53;;;43.95;24.27
31239;BME280;17871;31.584;74.450;2023-05-23T06:46:54;97849.50;;;43.65;22.28
31239;BME280;17871;31.584;74.450;2023-05-23T06:49:25;97842.03;;;44.24;23.64
31239;BME280;17871;31.584;74.450;2023-05-23T06:51:56;97845.13;;;43.83;23.38
31239;BME280;17871;31.584;74.450;2023-05-23T06:54:26;97832.53;;;44.15;22.66
31239;BME280;17871;31.584;74.450;2023-05-23T06:57:15;97825.41;;;44.34;23.75
31239;BME280;17871;31.584;74.450;2023-05-23T06:59:45;97831.56;;;44.41;23.25
31239;BME280;17871;31.584;74.450;2023-05-23T07:02:16;97825.16;;;44.73;22.35
31239;BME280;17871;31.584;74.450;2023-05-23T07:04:47;97825.88;;;44.62;22.61
31239;BME280;17871;31.584;74.450;2023-05-23T07:07:41;97817.94;;;44.67;22.50
31239;BME280;17871;31.584;74.450;2023-05-23T07:10:12;97818.88;;;44.79;23.16
31239;BME280;17871;31.584;74.450;2023-05-23T07:12:43;97815.25;;;44.67;22.65
31239;BME280;17871;31.584;74.450;2023-05-23T07:15:14;97809.19;;;44.97;23.24
31239;BME280;17871;31.584;74.450;2023-05-23T07:17:59;97809.97;;;45.04;23.29
31239;BME280;17871;31.584;74.450;2023-05-23T07:20:32;97803.72;;;45.28;23.17
31239;BME280;17871;31.584;74.450;2023-05-23T07:23:11;97798.66;;;45.13;23.51
31239;BME280;17871;31.584;74.450;2023-05-23T07:25:43;97807.31;;;45.58;23.41
31239;BME280;17871;31.584;74.450;2023-05-23T07:28:44;97792.78;;;45.59;23.66
31239;BME280;17871;31.584;74.450;2023-05-23T07:31:15;97791.34;;;45.38;23.67
31239;BME280;17871;31.584;74.450;2023-05-23T07:33:46;97800.44;;;45.44;23.62
31239;BME280;17871;31.584;74.450;2023-05-23T07:36:25;97784.53;;;45.36;23.05
31239;BME280;17871;31.584;74.450;2023-05-23T07:38:55;97779.84;;;45.31;23.46
31239;BME280;17871;31.584;74.450;2023-05-23T07:41:26;97773.91;;;45.77;25.04
31239;BME280;17871;31.584;74.450;2023-05-23T07:43:55;97774.94;;;46.06;24.34
31239;BME280;17871;31.584;74.450;2023-05-23T07:46:26;97774.41;;;45.68;23.76
31239;BME280;17871;31.584;74.450;2023-05-23T07:48:57;97770.22;;;46.02;23.63
31239;BME280;17871;31.584;74.450;2023-05-23T07:51:27;97763.09;;;45.77;25.23
31239;BME280;17871;31.584;74.450;2023-05-23T07:53:57;97764.56;;;45.55;24.68
31239;BME280;17871;31.584;74.450;2023-05-23T07:56:28;97758.16;;;45.38;24.84
31239;BME280;17871;31.584;74.450;2023-05-23T07:58:59;97758.50;;;45.60;24.28
31239;BME280;17871;31.584;74.450;2023-05-23T08:01:29;97753.59;;;45.68;24.98
31239;BME280;17871;31.584;74.450;2023-05-23T08:04:06;97753.19;;;45.53;24.73
31239;BME280;17871;31.584;74.450;2023-05-23T08:06:47;97746.66;;;45.61;25.29
31239;BME280;17871;31.584;74.450;2023-05-23T08:09:42;97736.09;;;45.41;25.06
31239;BME280;17871;31.584;74.450;2023-05-23T08:12:16;97736.44;;;45.81;24.76
31239;BME280;17871;31.584;74.450;2023-05-23T08:14:58;97730.91;;;45.58;24.71
31239;BME280;17871;31.584;74.450;2023-05-23T08:17:32;97720.16;;;45.87;25.18
31239;BME280;17871;31.584;74.450;2023-05-23T08:20:08;97715.88;;;46.10;25.29
31239;BME280;17871;31.584;74.450;2023-05-23T08:26:51;97696.97;;;45.80;25.73
31239;BME280;17871;31.584;74.450;2023-05-23T08:29:21;97695.56;;;45.89;26.16
31239;BME280;17871;31.584;74.450;2023-05-23T08:32:10;97684.03;;;46.12;26.00
31239;BME280;17871;31.584;74.450;2023-05-23T08:34:59;97691.19;;;45.76;26.03
31239;BME280;17871;31.584;74.450;2023-05-23T08:37:53;97686.63;;;45.77;25.97
31239;BME280;17871;31.584;74.450;2023-05-23T08:40:50;97698.84;;;45.79;26.63
31239;BME280;17871;31.584;74.450;2023-05-23T08:43:42;97699.63;;;45.32;27.62
31239;BME280;17871;31.584;74.450;2023-05-23T08:46:43;97693.59;;;44.75;27.30
31239;BME280;17871;31.584;74.450;2023-05-23T08:49:46;97700.38;;;44.60;27.96
31239;BME280;17871;31.584;74.450;2023-05-23T08:52:47;97700.41;;;44.53;28.39
31239;BME280;17871;31.584;74.450;2023-05-23T08:55:38;97706.13;;;44.07;29.09
31239;BME280;17871;31.584;74.450;2023-05-23T08:58:30;97709.78;;;43.50;29.42
31239;BME280;17871;31.584;74.450;2023-05-23T09:01:23;97716.06;;;43.18;29.61
31239;BME280;17871;31.584;74.450;2023-05-23T09:04:18;97714.91;;;42.81;29.79
31239;BME280;17871;31.584;74.450;2023-05-23T09:07:18;97736.19;;;42.69;29.90
31239;BME280;17871;31.584;74.450;2023-05-23T09:10:10;97734.13;;;42.52;29.80
31239;BME280;17871;31.584;74.450;2023-05-23T09:13:07;97736.31;;;41.96;29.80
31239;BME280;17871;31.584;74.450;2023-05-23T09:16:05;97725.59;;;42.02;29.69
31239;BME280;17871;31.584;74.450;2023-05-23T09:19:10;97730.53;;;41.99;30.05
31239;BME280;17871;31.584;74.450;2023-05-23T09:22:07;97732.47;;;41.64;30.61
31239;BME280;17871;31.584;74.450;2023-05-23T09:25:10;97736.16;;;41.56;30.59
31239;BME280;17871;31.584;74.450;2023-05-23T09:28:02;97739.28;;;41.25;30.62
31239;BME280;17871;31.584;74.450;2023-05-23T12:18:59;97453.47;;;42.72;26.00
31239;BME280;17871;31.584;74.450;2023-05-23T12:21:40;97461.38;;;42.67;27.18
31239;BME280;17871;31.584;74.450;2023-05-23T12:24:14;97458.50;;;42.62;26.10
31239;BME280;17871;31.584;74.450;2023-05-23T12:26:46;97458.09;;;42.52;25.38
31239;BME280;17871;31.584;74.450;2023-05-23T12:32:03;97446.56;;;42.45;26.44
31239;BME280;17871;31.584;74.450;2023-05-23T12:34:34;97447.66;;;42.31;25.46
31239;BME280;17871;31.584;74.450;2023-05-23T12:37:09;97445.78;;;42.38;25.71
31239;BME280;17871;31.584;74.450;2023-05-23T12:39:46;97445.13;;;42.36;26.60
31239;BME280;17871;31.584;74.450;2023-05-23T12:42:16;97455.34;;;42.21;26.56
31239;BME280;17871;31.584;74.450;2023-05-23T12:44:50;97449.13;;;42.14;26.78
31239;BME280;17871;31.584;74.450;2023-05-23T12:47:19;97441.13;;;41.87;26.43
31239;BME280;17871;31.584;74.450;2023-05-23T12:49:48;97444.66;;;41.88;25.89
31239;BME280;17871;31.584;74.450;2023-05-23T12:52:18;97448.19;;;41.49;25.50
31239;BME280;17871;31.584;74.450;2023-05-23T12:54:47;97443.63;;;41.69;27.02
31239;BME280;17871;31.584;74.450;2023-05-23T12:57:17;97435.94;;;41.73;26.24
31239;BME280;17871;31.584;74.450;2023-05-23T12:59:46;97440.53;;;41.59;26.52
31239;BME280;17871;31.584;74.450;2023-05-23T13:02:15;97441.16;;;41.48;26.28
31239;BME280;17871;31.584;74.450;2023-05-23T13:04:45;97437.63;;;41.28;26.62
31239;BME280;17871;31.584;74.450;2023-05-23T13:07:15;97438.84;;;41.19;26.28
31239;BME280;17871;31.584;74.450;2023-05-23T13:09:44;97435.75;;;41.02;27.88
31239;BME280;17871;31.584;74.450;2023-05-23T13:12:13;97434.03;;;40.94;26.55
31239;BME280;17871;31.584;74.450;2023-05-23T13:14:42;97443.91;;;40.87;26.27
31239;BME280;17871;31.584;74.450;2023-05-23T13:17:12;97436.50;;;40.76;26.51
31239;BME280;17871;31.584;74.450;2023-05-23T13:19:42;97430.91;;;40.71;26.59
31239;BME280;17871;31.584;74.450;2023-05-23T13:22:17;97436.22;;;40.58;27.86
31239;BME280;17871;31.584;74.450;2023-05-23T13:24:47;97438.22;;;40.50;28.07
31239;BME280;17871;31.584;74.450;2023-05-23T13:27:17;97443.34;;;40.44;28.89
31239;BME280;17871;31.584;74.450;2023-05-23T13:29:46;97445.78;;;40.33;28.29
31239;BME280;17871;31.584;74.450;2023-05-23T13:32:15;97451.09;;;40.20;28.74
31239;BME280;17871;31.584;74.450;2023-05-23T13:34:45;97456.19;;;40.15;28.37
31239;BME280;17871;31.584;74.450;2023-05-23T13:37:14;97467.19;;;39.99;28.28
31239;BME280;17871;31.584;74.450;2023-05-23T13:39:44;97470.91;;;39.98;30.12
31239;BME280;17871;31.584;74.450;2023-05-23T13:42:14;97485.28;;;39.90;28.52
31239;BME280;17871;31.584;74.450;2023-05-23T13:44:43;97484.44;;;39.89;28.62
31239;BME280;17871;31.584;74.450;2023-05-23T13:47:13;97494.28;;;39.82;28.03
31239;BME280;17871;31.584;74.450;2023-05-23T13:49:43;97493.34;;;39.97;29.12
31239;BME280;17871;31.584;74.450;2023-05-23T13:52:13;97501.25;;;39.77;29.45
31239;BME280;17871;31.584;74.450;2023-05-23T13:54:42;97507.75;;;39.68;29.05
31239;BME280;17871;31.584;74.450;2023-05-23T13:57:12;97509.06;;;39.57;29.57
31239;BME280;17871;31.584;74.450;2023-05-23T13:59:41;97512.41;;;39.38;29.89
31239;BME280;17871;31.584;74.450;2023-05-23T14:02:10;97513.19;;;39.32;30.53
31239;BME280;17871;31.584;74.450;2023-05-23T14:04:39;97517.88;;;39.30;31.75
31239;BME280;17871;31.584;74.450;2023-05-23T14:07:09;97531.63;;;39.27;32.11
31239;BME280;17871;31.584;74.450;2023-05-23T14:09:39;97535.81;;;39.15;30.67
31239;BME280;17871;31.584;74.450;2023-05-23T14:12:08;97545.75;;;39.06;30.71
31239;BME280;17871;31.584;74.450;2023-05-23T14:14:37;97557.59;;;38.97;31.81
31239;BME280;17871;31.584;74.450;2023-05-23T14:17:06;97565.91;;;38.87;32.09
31239;BME280;17871;31.584;74.450;2023-05-23T14:19:36;97564.50;;;38.77;31.67
31239;BME280;17871;31.584;74.450;2023-05-23T14:22:05;97567.94;;;38.71;31.96
31239;BME280;17871;31.584;74.450;2023-05-23T14:24:34;97574.66;;;38.67;31.63
31239;BME280;17871;31.584;74.450;2023-05-23T14:27:04;97584.63;;;38.58;32.26
31239;BME280;17871;31.584;74.450;2023-05-23T14:29:38;97594.56;;;38.64;32.73
31239;BME280;17871;31.584;74.450;2023-05-23T14:32:08;97607.47;;;38.46;31.95
31239;BME280;17871;31.584;74.450;2023-05-23T14:34:37;97607.25;;;38.33;32.05
31239;BME280;17871;31.584;74.450;2023-05-23T14:37:07;97616.63;;;38.29;31.85
31239;BME280;17871;31.584;74.450;2023-05-23T14:39:36;97623.34;;;38.25;32.76
31239;BME280;17871;31.584;74.450;2023-05-23T14:42:08;97623.06;;;38.20;32.75
31239;BME280;17871;31.584;74.450;2023-05-23T14:44:37;97634.38;;;38.22;33.20
31239;BME280;17871;31.584;74.450;2023-05-23T14:47:07;97639.44;;;38.17;33.41
31239;BME280;17871;31.584;74.450;2023-05-23T14:49:36;97644.31;;;38.28;33.21
31239;BME280;17871;31.584;74.450;2023-05-23T14:52:05;97642.66;;;38.27;34.46
31239;BME280;17871;31.584;74.450;2023-05-23T14:54:34;97635.84;;;38.24;34.33
31239;BME280;17871;31.584;74.450;2023-05-23T14:57:04;97634.75;;;38.19;35.24
31239;BME280;17871;31.584;74.450;2023-05-23T14:59:33;97629.66;;;38.24;35.14
31239;BME280;17871;31.584;74.450;2023-05-23T15:02:03;97629.97;;;38.29;35.02
31239;BME280;17871;31.584;74.450;2023-05-23T15:04:35;97632.44;;;38.30;34.45
31239;BME280;17871;31.584;74.450;2023-05-23T15:07:05;97626.84;;;38.25;35.60
31239;BME280;17871;31.584;74.450;2023-05-23T15:09:34;97627.31;;;38.29;35.74
31239;BME280;17871;31.584;74.450;2023-05-23T15:12:04;97631.97;;;38.27;34.89
31239;BME280;17871;31.584;74.450;2023-05-23T15:14:35;97633.00;;;38.26;35.39
31239;BME280;17871;31.584;74.450;2023-05-23T15:17:05;97626.00;;;38.25;34.92
31239;BME280;17871;31.584;74.450;2023-05-23T15:19:36;97623.97;;;38.27;35.44
31239;BME280;17871;31.584;74.450;2023-05-23T15:22:07;97616.84;;;38.05;35.74
31239;BME280;17871;31.584;74.450;2023-05-23T15:24:49;97618.22;;;38.01;36.44
31239;BME280;17871;31.584;74.450;2023-05-23T15:27:18;97610.28;;;37.92;36.41
31239;BME280;17871;31.584;74.450;2023-05-23T15:29:49;97604.81;;;37.86;36.14
31239;BME280;17871;31.584;74.450;2023-05-23T15:32:19;97605.16;;;37.83;36.16
31239;BME280;17871;31.584;74.450;2023-05-23T15:34:48;97604.09;;;37.69;36.42
31239;BME280;17871;31.584;74.450;2023-05-23T15:37:18;97604.09;;;37.69;36.84
31239;BME280;17871;31.584;74.450;2023-05-23T15:39:47;97608.59;;;37.69;36.52
31239;BME280;17871;31.584;74.450;2023-05-23T15:42:17;97615.13;;;37.66;36.55
31239;BME280;17871;31.584;74.450;2023-05-23T15:44:46;97611.63;;;37.66;36.12
31239;BME280;17871;31.584;74.450;2023-05-23T15:47:16;97617.00;;;37.58;36.71
31239;BME280;17871;31.584;74.450;2023-05-23T15:49:46;97624.22;;;37.57;36.79
31239;BME280;17871;31.584;74.450;2023-05-23T15:52:16;97613.59;;;37.49;37.25
31239;BME280;17871;31.584;74.450;2023-05-23T15:54:45;97617.56;;;37.45;36.67
31239;BME280;17871;31.584;74.450;2023-05-23T15:57:14;97620.59;;;37.42;36.96
31239;BME280;17871;31.584;74.450;2023-05-23T15:59:44;97623.09;;;37.43;36.36
31239;BME280;17871;31.584;74.450;2023-05-23T16:02:13;97625.44;;;37.38;36.59
31239;BME280;17871;31.584;74.450;2023-05-23T16:04:44;97631.31;;;37.34;37.06
31239;BME280;17871;31.584;74.450;2023-05-23T16:07:14;97630.59;;;37.17;37.17
31239;BME280;17871;31.584;74.450;2023-05-23T16:09:45;97632.56;;;37.15;37.38
31239;BME280;17871;31.584;74.450;2023-05-23T16:12:14;97637.41;;;37.12;38.12
31239;BME280;17871;31.584;74.450;2023-05-23T16:14:43;97636.84;;;37.02;37.93
31239;BME280;17871;31.584;74.450;2023-05-23T16:17:12;97631.50;;;37.02;37.52
31239;BME280;17871;31.584;74.450;2023-05-23T16:19:42;97638.78;;;37.00;37.94
31239;BME280;17871;31.584;74.450;2023-05-23T16:22:11;97633.47;;;37.00;38.44
31239;BME280;17871;31.584;74.450;2023-05-23T16:24:40;97627.91;;;36.70;39.27
31239;BME280;17871;31.584;74.450;2023-05-23T16:27:10;97637.56;;;36.71;39.06
31239;BME280;17871;31.584;74.450;2023-05-23T16:29:39;97648.72;;;36.67;39.80
31239;BME280;17871;31.584;74.450;2023-05-23T16:32:08;97654.75;;;36.61;40.57
31239;BME280;17871;31.584;74.450;2023-05-23T16:34:38;97652.56;;;36.56;40.79
31239;BME280;17871;31.584;74.450;2023-05-23T16:37:08;97648.09;;;36.57;39.90
31239;BME280;17871;31.584;74.450;2023-05-23T16:39:40;97656.84;;;36.81;39.50
31239;BME280;17871;31.584;74.450;2023-05-23T16:42:10;97653.72;;;36.70;39.82
31239;BME280;17871;31.584;74.450;2023-05-23T16:44:40;97644.56;;;36.64;39.92
31239;BME280;17871;31.584;74.450;2023-05-23T16:47:09;97641.88;;;36.72;40.16
31239;BME280;17871;31.584;74.450;2023-05-23T16:49:39;97637.72;;;36.70;39.85
31239;BME280;17871;31.584;74.450;2023-05-23T16:52:08;97636.53;;;36.72;39.99
31239;BME280;17871;31.584;74.450;2023-05-23T16:54:37;97629.88;;;36.76;39.94
31239;BME280;17871;31.584;74.450;2023-05-23T16:57:07;97625.22;;;36.78;39.82
31239;BME280;17871;31.584;74.450;2023-05-23T16:59:36;97625.53;;;36.75;39.63
31239;BME280;17871;31.584;74.450;2023-05-23T17:02:05;97617.56;;;36.75;39.45
31239;BME280;17871;31.584;74.450;2023-05-23T17:04:35;97602.94;;;36.71;39.74
31239;BME280;17871;31.584;74.450;2023-05-23T17:07:05;97612.28;;;36.67;39.82
31239;BME280;17871;31.584;74.450;2023-05-23T17:09:37;97608.63;;;36.60;39.74
31239;BME280;17871;31.584;74.450;2023-05-23T17:12:09;97611.28;;;36.60;39.40
31239;BME280;17871;31.584;74.450;2023-05-23T17:14:40;97614.47;;;36.48;39.51
31239;BME280;17871;31.584;74.450;2023-05-23T17:17:09;97608.97;;;36.65;39.80
31239;BME280;17871;31.584;74.450;2023-05-23T17:19:38;97604.09;;;36.69;39.11
31239;BME280;17871;31.584;74.450;2023-05-23T17:22:08;97591.16;;;36.58;39.23
31239;BME280;17871;31.584;74.450;2023-05-23T17:24:37;97582.34;;;36.57;39.67
31239;BME280;17871;31.584;74.450;2023-05-23T17:27:07;97596.31;;;36.51;40.03
31239;BME280;17871;31.584;74.450;2023-05-23T17:29:36;97610.47;;;36.43;39.87
31239;BME280;17871;31.584;74.450;2023-05-23T17:32:05;97613.47;;;36.49;39.72
31239;BME280;17871;31.584;74.450;2023-05-23T17:34:35;97620.97;;;36.45;40.02
31239;BME280;17871;31.584;74.450;2023-05-23T17:37:04;97628.63;;;36.40;40.54
31239;BME280;17871;31.584;74.450;2023-05-23T17:39:33;97632.94;;;36.41;40.08
31239;BME280;17871;31.584;74.450;2023-05-23T17:42:03;97639.13;;;36.33;39.31
31239;BME280;17871;31.584;74.450;2023-05-23T17:44:33;97633.63;;;36.35;39.29
31239;BME280;17871;31.584;74.450;2023-05-23T17:47:02;97636.59;;;36.40;39.43
31239;BME280;17871;31.584;74.450;2023-05-23T17:49:32;97635.81;;;36.31;39.50
31239;BME280;17871;31.584;74.450;2023-05-23T17:52:01;97629.94;;;36.36;39.13
31239;BME280;17871;31.584;74.450;2023-05-23T17:54:33;97627.47;;;36.59;38.63
31239;BME280;17871;31.584;74.450;2023-05-23T17:57:02;97634.16;;;36.22;39.54
31239;BME280;17871;31.584;74.450;2023-05-23T17:59:32;97631.66;;;36.29;39.29
31239;BME280;17871;31.584;74.450;2023-05-23T18:02:01;97622.00;;;36.28;39.22
31239;BME280;17871;31.584;74.450;2023-05-23T18:04:33;97605.22;;;36.11;38.89
31239;BME280;17871;31.584;74.450;2023-05-23T18:07:03;97602.72;;;36.18;39.35
31239;BME280;17871;31.584;74.450;2023-05-23T18:09:33;97612.38;;;36.11;39.71
31239;BME280;17871;31.584;74.450;2023-05-23T18:12:03;97621.00;;;36.13;38.99
31239;BME280;17871;31.584;74.450;2023-05-23T18:14:33;97626.66;;;36.18;39.66
31239;BME280;17871;31.584;74.450;2023-05-23T18:17:02;97628.19;;;36.12;39.59
31239;BME280;17871;31.584;74.450;2023-05-23T18:19:32;97633.31;;;36.06;39.36
31239;BME280;17871;31.584;74.450;2023-05-23T18:22:01;97629.97;;;36.04;39.67
31239;BME280;17871;31.584;74.450;2023-05-23T18:24:31;97629.97;;;36.04;40.39
31239;BME280;17871;31.584;74.450;2023-05-23T18:27:00;97620.34;;;36.03;40.39
31239;BME280;17871;31.584;74.450;2023-05-23T18:29:31;97618.66;;;36.02;39.76
31239;BME280;17871;31.584;74.450;2023-05-23T18:32:00;97633.47;;;36.04;39.45
31239;BME280;17871;31.584;74.450;2023-05-23T18:34:30;97627.81;;;35.99;39.66
31239;BME280;17871;31.584;74.450;2023-05-23T18:36:59;97629.97;;;35.87;40.23
31239;BME280;17871;31.584;74.450;2023-05-23T18:39:30;97637.13;;;35.95;40.03
31239;BME280;17871;31.584;74.450;2023-05-23T18:41:59;97652.91;;;35.97;39.96
31239;BME280;17871;31.584;74.450;2023-05-23T18:44:29;97669.06;;;35.95;40.58
31239;BME280;17871;31.584;74.450;2023-05-23T18:46:58;97679.06;;;36.17;39.53
31239;BME280;17871;31.584;74.450;2023-05-23T18:49:28;97681.41;;;36.12;40.31
31239;BME280;17871;31.584;74.450;2023-05-23T18:51:57;97676.22;;;36.11;39.09
31239;BME280;17871;31.584;74.450;2023-05-23T18:54:27;97683.38;;;36.18;39.64
31239;BME280;17871;31.584;74.450;2023-05-23T18:56:56;97691.69;;;36.23;39.32
31239;BME280;17871;31.584;74.450;2023-05-23T18:59:25;97686.72;;;36.28;39.10
31239;BME280;17871;31.584;74.450;2023-05-23T19:01:55;97694.00;;;36.42;39.11
31239;BME280;17871;31.584;74.450;2023-05-23T19:04:27;97707.50;;;36.41;39.18
31239;BME280;17871;31.584;74.450;2023-05-23T19:06:56;97721.47;;;36.27;40.69
31239;BME280;17871;31.584;74.450;2023-05-23T19:09:26;97719.31;;;36.38;40.67
31239;BME280;17871;31.584;74.450;2023-05-23T19:11:55;97741.41;;;36.07;40.60
31239;BME280;17871;31.584;74.450;2023-05-23T19:14:24;97753.38;;;36.03;40.66
31239;BME280;17871;31.584;74.450;2023-05-23T19:16:54;97763.22;;;35.60;40.47
31239;BME280;17871;31.584;74.450;2023-05-23T19:19:23;97761.03;;;35.22;38.37
31239;BME280;17871;31.584;74.450;2023-05-23T19:21:55;97784.97;;;34.78;37.55
31239;BME280;17871;31.584;74.450;2023-05-23T19:24:26;97801.38;;;34.56;37.89
31239;BME280;17871;31.584;74.450;2023-05-23T19:26:55;97799.09;;;34.08;37.59
31239;BME280;17871;31.584;74.450;2023-05-23T19:29:25;97788.47;;;33.90;38.44
31239;BME280;17871;31.584;74.450;2023-05-23T19:31:54;97805.81;;;33.85;38.67
31239;BME280;17871;31.584;74.450;2023-05-23T19:34:24;97849.03;;;33.85;39.12
31239;BME280;17871;31.584;74.450;2023-05-23T19:36:54;97859.03;;;33.74;39.01
31239;BME280;17871;31.584;74.450;2023-05-23T19:39:23;97890.72;;;33.66;39.55
31239;BME280;17871;31.584;74.450;2023-05-23T19:41:52;97928.94;;;33.63;39.72
31239;BME280;17871;31.584;74.450;2023-05-23T19:44:22;97954.81;;;33.42;39.72
31239;BME280;17871;31.584;74.450;2023-05-23T19:46:51;97957.88;;;33.09;42.36
31239;BME280;17871;31.584;74.450;2023-05-23T19:49:21;97971.25;;;32.29;45.85
31239;BME280;17871;31.584;74.450;2023-05-23T19:51:50;97950.78;;;31.50;48.37
31239;BME280;17871;31.584;74.450;2023-05-23T19:54:20;97945.84;;;31.15;49.77
31239;BME280;17871;31.584;74.450;2023-05-23T19:56:51;97923.69;;;31.27;50.35
31239;BME280;17871;31.584;74.450;2023-05-23T19:59:20;97923.13;;;30.92;51.03
31239;BME280;17871;31.584;74.450;2023-05-23T20:01:50;97928.25;;;30.93;51.21
31239;BME280;17871;31.584;74.450;2023-05-23T20:04:19;97915.00;;;30.83;51.66
31239;BME280;17871;31.584;74.450;2023-05-23T20:06:51;97915.81;;;31.16;51.39
31239;BME280;17871;31.584;74.450;2023-05-23T20:09:21;97916.19;;;30.59;52.67
31239;BME280;17871;31.584;74.450;2023-05-23T20:11:50;97902.16;;;30.58;52.33
31239;BME280;17871;31.584;74.450;2023-05-23T20:14:20;97887.75;;;30.62;53.11
31239;BME280;17871;31.584;74.450;2023-05-23T20:16:49;97873.44;;;30.33;54.25
31239;BME280;17871;31.584;74.450;2023-05-23T20:19:21;97877.66;;;30.24;54.80
31239;BME280;17871;31.584;74.450;2023-05-23T20:21:50;97852.19;;;29.69;57.33
31239;BME280;17871;31.584;74.450;2023-05-23T20:24:20;97827.31;;;29.40;58.91
31239;BME280;17871;31.584;74.450;2023-05-23T20:26:50;97837.84;;;29.29;60.12
31239;BME280;17871;31.584;74.450;2023-05-23T20:29:19;97833.97;;;29.11;60.42
31239;BME280;17871;31.584;74.450;2023-05-23T20:31:49;97826.47;;;28.71;61.72
31239;BME280;17871;31.584;74.450;2023-05-23T20:34:19;97790.06;;;28.65;62.05
31239;BME280;17871;31.584;74.450;2023-05-23T20:36:48;97761.47;;;28.39;62.33
31239;BME280;17871;31.584;74.450;2023-05-23T20:39:17;97749.81;;;28.30;62.74
31239;BME280;17871;31.584;74.450;2023-05-23T20:41:49;97728.31;;;28.36;61.52
31239;BME280;17871;31.584;74.450;2023-05-23T20:44:18;97704.06;;;28.32;60.79
31239;BME280;17871;31.584;74.450;2023-05-23T20:46:47;97673.38;;;28.33;60.43
31239;BME280;17871;31.584;74.450;2023-05-23T20:49:17;97641.34;;;28.39;60.26
31239;BME280;17871;31.584;74.450;2023-05-23T20:51:46;97633.72;;;28.47;59.82
31239;BME280;17871;31.584;74.450;2023-05-23T20:54:16;97641.81;;;28.22;59.90
31239;BME280;17871;31.584;74.450;2023-05-23T20:56:45;97626.69;;;28.02;59.94
31239;BME280;17871;31.584;74.450;2023-05-23T20:59:15;97588.16;;;28.13;60.31
31239;BME280;17871;31.584;74.450;2023-05-23T21:24:19;97482.88;;;28.81;54.35
31239;BME280;17871;31.584;74.450;2023-05-23T21:26:50;97496.63;;;29.17;53.36
31239;BME280;17871;31.584;74.450;2023-05-23T21:29:19;97500.78;;;29.19;53.24
31239;BME280;17871;31.584;74.450;2023-05-23T21:31:48;97483.06;;;29.21;52.65
31239;BME280;17871;31.584;74.450;2023-05-23T21:34:18;97516.94;;;29.26;53.05
31239;BME280;17871;31.584;74.450;2023-05-23T21:36:51;97575.00;;;29.45;52.54
31239;BME280;17871;31.584;74.450;2023-05-23T21:39:21;97595.91;;;29.15;53.09
31239;BME280;17871;31.584;74.450;2023-05-23T21:41:50;97610.66;;;29.49;53.25
31239;BME280;17871;31.584;74.450;2023-05-23T21:44:19;97590.38;;;29.61;52.29
31239;BME280;17871;31.584;74.450;2023-05-23T21:46:49;97598.44;;;29.80;52.27
31239;BME280;17871;31.584;74.450;2023-05-23T21:49:18;97593.56;;;29.75;52.43
31239;BME280;17871;31.584;74.450;2023-05-23T21:51:48;97595.78;;;29.59;53.25
31239;BME280;17871;31.584;74.450;2023-05-23T21:58:13;97576.66;;;29.78;52.99
31239;BME280;17871;31.584;74.450;2023-05-23T22:00:46;97574.16;;;29.76;52.43
31239;BME280;17871;31.584;74.450;2023-05-23T22:03:35;97571.22;;;29.91;52.21
31239;BME280;17871;31.584;74.450;2023-05-23T22:06:05;97572.53;;;29.96;51.64
31239;BME280;17871;31.584;74.450;2023-05-23T22:08:56;97567.47;;;30.14;52.09
31239;BME280;17871;31.584;74.450;2023-05-23T22:11:26;97567.09;;;29.98;52.35
31239;BME280;17871;31.584;74.450;2023-05-23T22:17:56;97586.81;;;29.82;53.27
31239;BME280;17871;31.584;74.450;2023-05-23T22:28:18;97588.69;;;29.92;53.03
31239;BME280;17871;31.584;74.450;2023-05-23T22:30:47;97597.81;;;29.88;52.98
31239;BME280;17871;31.584;74.450;2023-05-23T22:33:17;97617.56;;;29.61;53.12
31239;BME280;17871;31.584;74.450;2023-05-23T22:36:22;97601.03;;;29.91;52.09
31239;BME280;17871;31.584;74.450;2023-05-23T22:38:52;97598.91;;;29.85;52.56
31239;BME280;17871;31.584;74.450;2023-05-23T22:45:34;97591.28;;;29.71;52.88
31239;BME280;17871;31.584;74.450;2023-05-23T22:48:10;97586.03;;;29.71;52.31
31239;BME280;17871;31.584;74.450;2023-05-23T22:50:39;97601.06;;;29.59;52.19
31239;BME280;17871;31.584;74.450;2023-05-23T22:53:09;97599.66;;;29.44;52.89
31239;BME280;17871;31.584;74.450;2023-05-23T22:55:39;97603.09;;;29.56;52.87
31239;BME280;17871;31.584;74.450;2023-05-23T22:58:08;97608.28;;;29.46;53.10
31239;BME280;17871;31.584;74.450;2023-05-23T23:00:38;97613.88;;;29.53;53.18
31239;BME280;17871;31.584;74.450;2023-05-23T23:03:07;97622.16;;;29.48;53.68
31239;BME280;17871;31.584;74.450;2023-05-23T23:05:37;97596.00;;;29.35;54.04